createdAt,value
2024-03-01T00:01:05.266Z,76.55
2024-03-01T00:03:34.476Z,77.44
2024-03-01T00:06:02.332Z,76.76
2024-03-01T00:08:29.985Z,77.67
2024-03-01T00:10:57.673Z,75.31
2024-03-01T00:13:25.403Z,76.21
2024-03-01T00:15:53.100Z,75.46
2024-03-01T00:18:21.314Z,76.21
2024-03-01T00:20:51.798Z,75.91
2024-03-01T00:23:19.496Z,76.12
2024-03-01T00:25:47.154Z,76.95
2024-03-01T00:28:14.927Z,77.63
2024-03-01T00:30:42.572Z,74.99
2024-03-01T00:33:10.234Z,75.04
2024-03-01T00:35:38.028Z,76.00
2024-03-01T00:38:07.407Z,76.93
2024-03-01T00:40:35.080Z,76.25
2024-03-01T00:43:03.406Z,77.13
2024-03-01T00:45:31.087Z,75.43
2024-03-01T00:47:58.995Z,75.18
2024-03-01T00:50:27.677Z,74.36
2024-03-01T00:52:55.354Z,74.41
2024-03-01T00:55:24.524Z,75.76
2024-03-01T00:57:52.425Z,75.40
2024-03-01T01:00:20.613Z,75.69
2024-03-01T01:02:48.217Z,78.27
2024-03-01T01:05:16.674Z,77.64
2024-03-01T01:07:44.383Z,76.58
2024-03-01T01:10:12.634Z,76.86
2024-03-01T01:12:41.764Z,76.58
2024-03-01T01:15:13.074Z,76.59
2024-03-01T01:17:41.854Z,79.04
2024-03-01T01:20:10.391Z,76.65
2024-03-01T01:22:38.142Z,78.29
2024-03-01T01:25:07.312Z,76.55
2024-03-01T01:27:35.155Z,77.80
2024-03-01T01:30:04.861Z,78.42
2024-03-01T01:32:32.750Z,76.32
2024-03-01T01:35:00.560Z,76.15
2024-03-01T01:37:28.321Z,77.59
2024-03-01T01:39:56.318Z,77.93
2024-03-01T01:42:24.101Z,78.59
2024-03-01T01:44:51.847Z,78.53
2024-03-01T01:47:21.067Z,78.92
2024-03-01T01:49:48.849Z,77.25
2024-03-01T01:52:16.863Z,77.97
2024-03-01T01:54:44.768Z,76.91
2024-03-01T01:57:13.179Z,77.53
2024-03-01T01:59:44.577Z,79.25
2024-03-01T02:02:12.895Z,79.77
2024-03-01T02:04:42.158Z,79.33
2024-03-01T02:07:09.984Z,81.46
2024-03-01T02:09:40.489Z,80.22
2024-03-01T02:12:08.588Z,81.27
2024-03-01T02:14:36.371Z,79.77
2024-03-01T02:17:04.212Z,80.38
2024-03-01T02:19:32.111Z,81.58
2024-03-01T02:22:07.058Z,80.65
2024-03-01T02:24:36.248Z,80.54
2024-03-01T02:27:05.247Z,79.54
2024-03-01T02:29:33.118Z,78.84
2024-03-01T02:32:01.368Z,81.12
2024-03-01T02:34:29.138Z,82.10
2024-03-01T02:36:56.838Z,82.33
2024-03-01T02:39:26.250Z,82.20
2024-03-01T02:41:55.315Z,82.60
2024-03-01T02:44:22.994Z,83.04
2024-03-01T02:46:50.640Z,83.36
2024-03-01T02:49:18.403Z,83.31
2024-03-01T02:51:46.093Z,83.60
2024-03-01T02:54:13.740Z,82.80
2024-03-01T02:56:41.364Z,82.93
2024-03-01T02:59:11.533Z,83.90
2024-03-01T03:01:39.303Z,83.35
2024-03-01T03:04:07.033Z,83.98
2024-03-01T03:06:34.817Z,84.73
2024-03-01T03:09:02.478Z,84.00
2024-03-01T03:11:30.252Z,83.40
2024-03-01T03:13:57.904Z,83.42
2024-03-01T03:16:26.990Z,83.18
2024-03-01T03:18:54.945Z,83.91
2024-03-01T03:21:22.602Z,82.02
2024-03-01T03:23:50.217Z,81.84
2024-03-01T03:26:17.878Z,83.14
2024-03-01T03:28:45.975Z,82.40
2024-03-01T03:31:13.637Z,81.63
2024-03-01T03:33:42.790Z,81.25
2024-03-01T03:36:11.161Z,83.10
2024-03-01T03:38:38.773Z,82.49
2024-03-01T03:41:06.493Z,82.63
2024-03-01T03:43:34.185Z,81.42
2024-03-01T03:46:01.964Z,81.67
2024-03-01T03:48:29.767Z,83.02
2024-03-01T03:50:58.734Z,82.54
2024-03-01T03:53:26.884Z,81.23
2024-03-01T03:55:54.849Z,82.09
2024-03-01T03:58:22.573Z,81.54
2024-03-01T04:00:50.365Z,80.84
2024-03-01T04:03:18.242Z,81.69
2024-03-01T04:05:45.853Z,83.04
2024-03-01T04:08:14.819Z,83.44
2024-03-01T04:10:42.480Z,84.23
2024-03-01T04:13:10.193Z,82.36
2024-03-01T04:15:37.823Z,83.87
2024-03-01T04:18:06.340Z,83.08
2024-03-01T04:20:35.370Z,83.80
2024-03-01T04:23:05.198Z,84.75
2024-03-01T04:25:35.923Z,83.84
2024-03-01T04:28:03.695Z,85.63
2024-03-01T04:30:31.348Z,85.16
2024-03-01T04:32:58.997Z,85.44
2024-03-01T04:35:26.678Z,83.95
2024-03-01T04:37:54.800Z,83.35
2024-03-01T04:40:22.700Z,84.08
2024-03-01T04:42:53.736Z,84.10
2024-03-01T04:45:21.493Z,84.97
2024-03-01T04:47:50.929Z,84.69
2024-03-01T04:50:18.698Z,84.59
2024-03-01T04:52:46.469Z,83.92
2024-03-01T04:55:14.270Z,84.86
2024-03-01T04:57:42.221Z,83.54
2024-03-01T05:00:14.178Z,84.00
2024-03-01T05:02:42.353Z,83.63
2024-03-01T05:05:10.211Z,83.40
2024-03-01T05:07:37.945Z,83.81
2024-03-01T05:10:10.717Z,83.74
2024-03-01T05:12:38.615Z,84.40
2024-03-01T05:15:08.648Z,83.70
2024-03-01T05:17:41.241Z,83.88
2024-03-01T05:20:11.973Z,83.02
2024-03-01T05:22:40.645Z,82.91
2024-03-01T05:25:15.649Z,82.58
2024-03-01T05:27:43.914Z,83.76
2024-03-01T05:30:13.953Z,83.73
2024-03-01T05:32:47.571Z,83.81
2024-03-01T05:35:15.826Z,83.29
2024-03-01T05:37:44.476Z,83.52
2024-03-01T05:40:15.834Z,84.80
2024-03-01T05:42:43.840Z,84.06
2024-03-01T05:45:13.485Z,82.50
2024-03-01T05:47:42.045Z,83.07
2024-03-01T05:50:12.869Z,84.51
2024-03-01T05:52:42.065Z,83.63
2024-03-01T05:55:10.757Z,84.71
2024-03-01T05:57:38.686Z,84.79
2024-03-01T06:00:18.859Z,84.55
2024-03-01T06:02:47.920Z,83.68
2024-03-01T06:05:17.816Z,82.48
2024-03-01T06:07:46.870Z,81.84
2024-03-01T06:10:15.640Z,83.46
2024-03-01T06:12:43.311Z,84.66
2024-03-01T06:15:10.985Z,83.43
2024-03-01T06:17:38.994Z,81.03
2024-03-01T06:20:08.478Z,81.57
2024-03-01T06:22:37.523Z,81.06
2024-03-01T06:25:09.493Z,81.49
2024-03-01T06:27:38.626Z,81.07
2024-03-01T06:30:07.966Z,82.31
2024-03-01T06:32:36.047Z,80.02
2024-03-01T06:35:05.015Z,80.24
2024-03-01T06:37:32.971Z,82.59
2024-03-01T06:40:06.324Z,80.03
2024-03-01T06:42:34.039Z,80.71
2024-03-01T06:45:01.672Z,79.71
2024-03-01T06:47:31.339Z,81.64
2024-03-01T06:49:59.072Z,80.18
2024-03-01T06:52:27.359Z,80.90
2024-03-01T06:54:55.208Z,79.08
2024-03-01T06:57:24.213Z,79.62
2024-03-01T06:59:51.866Z,80.23
2024-03-01T07:02:19.792Z,79.28
2024-03-01T07:04:47.626Z,80.15
2024-03-01T07:07:17.556Z,81.65
2024-03-01T07:09:45.513Z,79.23
2024-03-01T07:12:13.186Z,78.20
2024-03-01T07:14:46.429Z,78.92
2024-03-01T07:17:14.089Z,79.31
2024-03-01T07:19:41.889Z,75.47
2024-03-01T07:22:09.799Z,76.12
2024-03-01T07:24:37.457Z,79.15
2024-03-01T07:27:05.458Z,78.47
2024-03-01T07:29:33.271Z,77.07
2024-03-01T07:32:03.832Z,77.77
2024-03-01T07:34:31.842Z,77.72
2024-03-01T07:37:00.045Z,77.76
2024-03-01T07:39:27.709Z,77.14
2024-03-01T07:41:55.397Z,76.68
2024-03-01T07:44:23.086Z,73.41
2024-03-01T07:46:56.902Z,69.67
2024-03-01T07:49:26.203Z,68.77
2024-03-01T07:51:54.278Z,66.05
2024-03-01T07:54:22.057Z,65.69
2024-03-01T07:56:49.991Z,67.71
2024-03-01T07:59:17.732Z,66.54
2024-03-01T08:01:45.645Z,65.80
2024-03-01T08:04:13.570Z,64.38
2024-03-01T08:06:42.785Z,63.12
2024-03-01T08:09:18.645Z,59.93
2024-03-01T08:11:47.464Z,56.68
2024-03-01T08:14:23.497Z,58.41
2024-03-01T08:16:53.550Z,57.83
2024-03-01T08:19:22.428Z,52.19
2024-03-01T08:22:01.093Z,56.08
2024-03-01T08:24:28.818Z,55.04
2024-03-01T08:26:56.488Z,52.13
2024-03-01T08:29:24.162Z,48.24
2024-03-01T08:31:52.060Z,48.92
2024-03-01T08:34:23.034Z,47.39
2024-03-01T08:36:53.756Z,51.39
2024-03-01T08:39:23.186Z,48.62
2024-03-01T08:41:53.213Z,49.42
2024-03-01T08:44:51.266Z,52.08
2024-03-01T08:47:27.084Z,54.98
2024-03-01T08:50:39.714Z,50.73
2024-03-01T08:53:46.772Z,50.01
2024-03-01T08:56:17.454Z,48.47
2024-03-01T08:58:46.448Z,53.48
2024-03-01T09:01:38.634Z,53.94
2024-03-01T09:04:13.306Z,52.75
2024-03-01T09:06:42.247Z,51.40
2024-03-01T09:09:26.647Z,51.93
2024-03-01T09:11:54.896Z,55.29
2024-03-01T09:14:31.992Z,56.66
2024-03-01T09:17:01.932Z,62.81
2024-03-01T09:19:37.710Z,63.73
2024-03-01T09:22:07.026Z,66.16
2024-03-01T09:24:39.562Z,64.42
2024-03-01T09:27:12.546Z,64.40
2024-03-01T09:29:40.406Z,64.47
2024-03-01T09:32:09.593Z,63.54
2024-03-01T09:34:39.649Z,62.73
2024-03-01T09:37:12.139Z,66.50
2024-03-01T09:39:41.854Z,65.57
2024-03-01T09:42:18.449Z,65.44
2024-03-01T09:45:00.964Z,62.95
2024-03-01T09:47:40.349Z,66.38
2024-03-01T09:50:26.956Z,64.66
2024-03-01T09:53:08.797Z,63.25
2024-03-01T09:55:47.298Z,64.46
2024-03-01T09:58:24.868Z,66.66
2024-03-01T10:01:03.678Z,66.82
2024-03-01T10:03:42.600Z,66.01
2024-03-01T10:06:33.636Z,65.60
2024-03-01T10:09:13.161Z,65.76
2024-03-01T10:11:53.545Z,68.70
2024-03-01T10:14:30.793Z,66.67
2024-03-01T10:17:06.424Z,66.12
2024-03-01T10:19:50.538Z,65.37
2024-03-01T10:22:28.037Z,66.12
2024-03-01T10:25:13.050Z,66.71
2024-03-01T10:27:48.129Z,65.56
2024-03-01T10:30:19.298Z,67.33
2024-03-01T10:33:06.061Z,67.19
2024-03-01T10:35:45.943Z,66.35
2024-03-01T10:38:22.478Z,66.10
2024-03-01T10:40:59.486Z,66.80
2024-03-01T10:43:37.461Z,65.01
2024-03-01T10:46:11.691Z,66.17
2024-03-01T10:48:49.456Z,68.85
2024-03-01T10:51:19.729Z,69.57
2024-03-01T10:53:53.391Z,68.63
2024-03-01T10:56:22.215Z,67.90
2024-03-01T10:58:57.026Z,68.78
2024-03-01T11:01:35.471Z,68.70
2024-03-01T11:04:10.657Z,68.17
2024-03-01T11:06:51.544Z,66.33
2024-03-01T11:09:27.037Z,67.75
2024-03-01T11:12:03.524Z,67.71
2024-03-01T11:14:35.884Z,66.83
2024-03-01T11:17:07.039Z,68.34
2024-03-01T11:19:37.049Z,67.84
2024-03-01T11:22:12.682Z,67.65
2024-03-01T11:24:46.265Z,68.37
2024-03-01T11:27:25.412Z,69.58
2024-03-01T11:30:01.601Z,69.32
2024-03-01T11:32:32.047Z,67.63
2024-03-01T11:35:08.522Z,67.55
2024-03-01T11:37:43.938Z,67.45
2024-03-01T11:40:16.640Z,68.15
2024-03-01T11:43:00.550Z,68.45
2024-03-01T11:45:39.112Z,68.25
2024-03-01T11:48:23.646Z,68.75
2024-03-01T11:51:05.739Z,67.17
2024-03-01T11:53:53.333Z,65.60
2024-03-01T11:56:44.752Z,67.31
2024-03-01T11:59:28.228Z,65.37
2024-03-01T12:02:04.998Z,65.60
2024-03-01T12:04:45.158Z,67.71
2024-03-01T12:07:28.697Z,66.88
2024-03-01T12:10:06.312Z,67.01
2024-03-01T12:12:42.404Z,64.83
2024-03-01T12:15:13.874Z,64.33
2024-03-01T12:17:53.198Z,64.39
2024-03-01T12:20:21.571Z,64.50
2024-03-01T12:23:07.401Z,64.71
2024-03-01T12:25:38.556Z,66.11
2024-03-01T12:28:20.239Z,65.41
2024-03-01T12:31:01.070Z,66.37
2024-03-01T12:33:41.750Z,64.28
2024-03-01T12:36:16.342Z,64.71
2024-03-01T12:38:49.272Z,64.36
2024-03-01T12:41:30.584Z,63.82
2024-03-01T12:44:14.333Z,65.04
2024-03-01T12:47:16.737Z,65.97
2024-03-01T12:50:00.912Z,64.94
2024-03-01T12:52:40.679Z,63.19
2024-03-01T12:55:16.447Z,65.68
2024-03-01T12:57:51.131Z,65.19
2024-03-01T13:00:26.696Z,65.16
2024-03-01T13:03:28.533Z,65.85
2024-03-01T13:05:57.723Z,67.39
2024-03-01T13:08:33.383Z,66.72
2024-03-01T13:11:06.994Z,67.05
2024-03-01T13:13:38.282Z,68.86
2024-03-01T13:16:11.261Z,66.87
2024-03-01T13:18:48.331Z,68.29
2024-03-01T13:21:27.828Z,68.21
2024-03-01T13:24:10.260Z,67.70
2024-03-01T13:26:41.327Z,68.04
2024-03-01T13:29:14.883Z,67.95
2024-03-01T13:31:48.022Z,68.16
2024-03-01T13:34:19.835Z,68.87
2024-03-01T13:36:56.330Z,68.74
2024-03-01T13:39:34.125Z,68.35
2024-03-01T13:42:07.184Z,67.73
2024-03-01T13:44:40.127Z,68.13
2024-03-01T13:47:18.946Z,67.12
2024-03-01T13:49:50.688Z,67.32
2024-03-01T13:52:19.871Z,68.17
2024-03-01T13:54:47.998Z,67.82
2024-03-01T13:57:16.036Z,67.51
2024-03-01T13:59:44.498Z,66.73
2024-03-01T14:02:12.701Z,67.78
2024-03-01T14:04:41.707Z,68.36
2024-03-01T14:07:15.337Z,69.81
2024-03-01T14:09:47.975Z,68.38
2024-03-01T14:12:15.712Z,70.45
2024-03-01T14:14:43.456Z,69.63
2024-03-01T14:17:11.969Z,68.63
2024-03-01T14:19:39.780Z,71.68
2024-03-01T14:22:09.619Z,68.94
2024-03-01T14:24:37.533Z,68.21
2024-03-01T14:27:06.960Z,68.07
2024-03-01T14:29:34.737Z,69.53
2024-03-01T14:32:04.904Z,67.39
2024-03-01T14:34:40.764Z,66.79
2024-03-01T14:37:11.181Z,65.98
2024-03-01T14:39:40.451Z,66.67
2024-03-01T14:42:19.282Z,65.34
2024-03-01T14:44:47.132Z,65.22
2024-03-01T14:47:15.398Z,64.01
2024-03-01T14:49:44.329Z,64.79
2024-03-01T14:52:12.795Z,65.38
2024-03-01T14:54:40.782Z,64.65
2024-03-01T14:57:08.842Z,63.96
2024-03-01T14:59:38.601Z,64.40
2024-03-01T15:02:06.599Z,65.86
2024-03-01T15:04:34.777Z,66.97
2024-03-01T15:07:03.732Z,66.90
2024-03-01T15:09:31.539Z,66.40
2024-03-01T15:12:07.320Z,67.14
2024-03-01T15:14:34.982Z,65.77
2024-03-01T15:17:09.076Z,67.60
2024-03-01T15:19:40.795Z,66.28
2024-03-01T15:22:12.327Z,64.09
2024-03-01T15:24:40.190Z,64.87
2024-03-01T15:27:07.816Z,66.04
2024-03-01T15:29:36.311Z,66.27
2024-03-01T15:32:04.173Z,64.97
2024-03-01T15:34:33.229Z,64.01
2024-03-01T15:37:01.066Z,65.14
2024-03-01T15:39:28.783Z,64.85
2024-03-01T15:41:56.468Z,63.86
2024-03-01T15:44:25.822Z,65.35
2024-03-01T15:46:54.093Z,64.77
2024-03-01T15:49:21.784Z,65.09
2024-03-01T15:51:51.504Z,64.95
2024-03-01T15:54:19.275Z,65.45
2024-03-01T15:56:47.050Z,65.48
2024-03-01T15:59:14.764Z,66.07
2024-03-01T16:01:42.538Z,66.56
2024-03-01T16:04:10.391Z,67.08
2024-03-01T16:06:38.882Z,66.00
2024-03-01T16:09:10.260Z,66.63
2024-03-01T16:11:42.841Z,66.46
2024-03-01T16:14:11.611Z,67.01
2024-03-01T16:16:39.478Z,68.57
2024-03-01T16:19:07.350Z,68.90
2024-03-01T16:21:35.036Z,68.09
2024-03-01T16:24:06.163Z,67.75
2024-03-01T16:26:35.461Z,67.04
2024-03-01T16:29:03.824Z,70.31
2024-03-01T16:31:31.623Z,69.58
2024-03-01T16:33:59.369Z,69.84
2024-03-01T16:36:27.015Z,70.90
2024-03-01T16:38:55.005Z,70.23
2024-03-01T16:41:34.331Z,70.55
2024-03-01T16:44:04.478Z,70.87
2024-03-01T16:46:34.316Z,69.75
2024-03-01T16:49:02.994Z,71.69
2024-03-01T16:51:37.543Z,71.29
2024-03-01T16:54:07.282Z,69.88
2024-03-01T16:56:37.884Z,68.73
2024-03-01T16:59:09.440Z,69.66
2024-03-01T17:01:47.622Z,68.99
2024-03-01T17:04:19.677Z,69.43
2024-03-01T17:06:49.033Z,68.89
2024-03-01T17:09:19.330Z,68.53
2024-03-01T17:11:49.129Z,69.98
2024-03-01T17:14:18.669Z,68.76
2024-03-01T17:16:47.276Z,70.50
2024-03-01T17:19:43.650Z,70.11
2024-03-01T17:22:11.945Z,70.00
2024-03-01T17:24:40.696Z,69.47
2024-03-01T17:27:08.465Z,70.50
2024-03-01T17:29:37.447Z,71.62
2024-03-01T17:32:05.529Z,71.50
2024-03-01T17:34:33.192Z,70.04
2024-03-01T17:37:01.008Z,72.06
2024-03-01T17:39:28.752Z,75.57
2024-03-01T17:41:56.403Z,74.18
2024-03-01T17:44:24.078Z,72.72
2024-03-01T17:46:53.115Z,75.29
2024-03-01T17:49:25.737Z,77.13
2024-03-01T17:51:53.462Z,73.71
2024-03-01T17:54:21.138Z,74.09
2024-03-01T17:56:48.778Z,74.78
2024-03-01T17:59:16.410Z,73.72
2024-03-01T18:01:44.156Z,75.25
2024-03-01T18:04:13.388Z,75.16
2024-03-01T18:06:42.051Z,74.58
2024-03-01T18:09:10.037Z,76.27
2024-03-01T18:11:38.667Z,75.61
2024-03-01T18:14:08.759Z,75.46
2024-03-01T18:16:36.532Z,77.23
2024-03-01T18:19:04.320Z,76.76
2024-03-01T18:21:34.327Z,78.25
2024-03-01T18:24:01.964Z,77.91
2024-03-01T18:26:30.905Z,77.34
2024-03-01T18:28:58.678Z,77.37
2024-03-01T18:31:26.345Z,77.92
2024-03-01T18:33:55.854Z,76.87
2024-03-01T18:36:23.722Z,76.50
2024-03-01T18:38:53.292Z,79.08
2024-03-01T18:41:21.080Z,78.50
2024-03-01T18:43:49.617Z,79.35
2024-03-01T18:46:17.562Z,78.99
2024-03-01T18:48:45.555Z,76.21
2024-03-01T18:51:13.224Z,75.43
2024-03-01T18:53:40.955Z,74.34
2024-03-01T18:56:10.244Z,74.36
2024-03-01T18:58:38.145Z,74.48
2024-03-01T19:01:14.188Z,77.66
2024-03-01T19:03:43.203Z,76.77
2024-03-01T19:06:10.896Z,76.39
2024-03-01T19:08:38.965Z,75.82
2024-03-01T19:11:06.996Z,76.14
2024-03-01T19:13:36.137Z,77.06
2024-03-01T19:16:06.708Z,75.71
2024-03-01T19:18:34.662Z,75.86
2024-03-01T19:21:02.522Z,74.31
2024-03-01T19:23:32.877Z,75.06
2024-03-01T19:26:01.592Z,74.87
2024-03-01T19:28:29.769Z,73.66
2024-03-01T19:31:00.166Z,72.29
2024-03-01T19:33:28.027Z,71.94
2024-03-01T19:35:57.359Z,72.08
2024-03-01T19:38:25.037Z,72.52
2024-03-01T19:40:53.981Z,72.65
2024-03-01T19:43:23.304Z,72.27
2024-03-01T19:45:51.584Z,72.12
2024-03-01T19:48:22.249Z,71.94
2024-03-01T19:50:50.281Z,71.54
2024-03-01T19:53:18.219Z,72.20
2024-03-01T19:55:46.327Z,73.52
2024-03-01T19:58:14.487Z,73.96
2024-03-01T20:00:42.682Z,72.87
2024-03-01T20:03:10.697Z,75.31
2024-03-01T20:05:40.022Z,77.50
2024-03-01T20:08:08.153Z,78.56
2024-03-01T20:10:36.127Z,78.07
2024-03-01T20:13:04.184Z,74.88
2024-03-01T20:15:32.181Z,74.34
2024-03-01T20:18:00.049Z,75.38
2024-03-01T20:20:27.709Z,75.29
2024-03-01T20:22:56.725Z,74.45
2024-03-01T20:25:26.137Z,76.84
2024-03-01T20:27:54.172Z,78.31
2024-03-01T20:30:21.883Z,78.32
2024-03-01T20:32:49.735Z,78.94
2024-03-01T20:35:17.499Z,78.95
2024-03-01T20:37:45.652Z,77.12
2024-03-01T20:40:15.245Z,76.85
2024-03-01T20:42:43.193Z,78.03
2024-03-01T20:45:11.713Z,78.10
2024-03-01T20:47:39.675Z,77.12
2024-03-01T20:50:08.879Z,76.20
2024-03-01T20:52:37.018Z,76.70
2024-03-01T20:55:06.806Z,74.29
2024-03-01T20:57:36.222Z,75.91
2024-03-01T21:00:04.055Z,74.91
2024-03-01T21:02:31.955Z,75.85
2024-03-01T21:04:59.726Z,75.81
2024-03-01T21:07:29.057Z,75.09
2024-03-01T21:09:56.988Z,75.36
2024-03-01T21:12:24.698Z,76.03
2024-03-01T21:14:54.217Z,74.57
2024-03-01T21:17:21.951Z,73.65
2024-03-01T21:19:49.772Z,73.44
2024-03-01T21:24:48.048Z,74.98
2024-03-01T21:27:16.940Z,75.65
2024-03-01T21:29:45.440Z,75.24
2024-03-01T21:32:21.975Z,76.16
2024-03-01T21:34:53.053Z,76.74
2024-03-01T21:37:20.820Z,77.15
2024-03-01T21:39:48.576Z,74.15
2024-03-01T21:42:16.653Z,73.17
2024-03-01T21:44:45.637Z,74.04
2024-03-01T21:47:14.739Z,74.60
2024-03-01T21:49:42.802Z,74.91
2024-03-01T21:52:10.966Z,74.16
2024-03-01T21:54:38.782Z,74.33
2024-03-01T21:57:06.510Z,74.59
2024-03-01T21:59:34.344Z,73.96
2024-03-01T22:02:04.089Z,74.98
2024-03-01T22:04:34.834Z,78.28
2024-03-01T22:07:02.585Z,77.92
2024-03-01T22:09:30.517Z,80.49
2024-03-01T22:11:58.164Z,80.99
2024-03-01T22:14:25.939Z,80.21
2024-03-01T22:16:53.665Z,79.75
2024-03-01T22:19:21.367Z,78.45
2024-03-01T22:21:50.537Z,77.37
2024-03-01T22:24:18.185Z,76.90
2024-03-01T22:26:47.232Z,77.55
2024-03-01T22:29:14.937Z,75.31
2024-03-01T22:31:44.278Z,79.42
2024-03-01T22:34:12.116Z,79.15
2024-03-01T22:36:39.812Z,78.74
2024-03-01T22:39:10.183Z,80.59
2024-03-01T22:41:37.985Z,80.08
2024-03-01T22:44:06.081Z,78.26
2024-03-01T22:46:33.780Z,78.05
2024-03-01T22:49:01.809Z,79.23
2024-03-01T22:51:29.628Z,79.56
2024-03-01T22:53:57.434Z,81.22
2024-03-01T22:56:29.912Z,81.68
2024-03-01T22:59:00.299Z,80.79
2024-03-01T23:01:29.763Z,82.36
2024-03-01T23:03:58.797Z,82.21
2024-03-01T23:06:28.586Z,80.72
2024-03-01T23:08:57.605Z,82.82
2024-03-01T23:11:42.120Z,84.68
2024-03-01T23:14:41.699Z,84.19
2024-03-01T23:17:09.657Z,84.64
2024-03-01T23:19:37.977Z,82.36
2024-03-01T23:22:12.020Z,81.18
2024-03-01T23:24:40.811Z,79.30
2024-03-01T23:27:10.368Z,80.12
2024-03-01T23:29:38.057Z,81.99
2024-03-01T23:32:07.487Z,81.15
2024-03-01T23:34:36.229Z,82.52
2024-03-01T23:37:04.005Z,81.96
2024-03-01T23:39:31.763Z,82.04
2024-03-01T23:41:59.444Z,79.64
2024-03-01T23:44:29.832Z,78.80
2024-03-01T23:46:58.297Z,80.98
2024-03-01T23:49:25.939Z,81.47
2024-03-01T23:51:53.683Z,80.07
2024-03-01T23:54:21.401Z,80.30
2024-03-01T23:56:49.193Z,80.84
2024-03-01T23:59:16.927Z,81.17
